Weather at Mersing Airport

Public forecast

Using degrees Celsius for public forecast. Weather courtesy of forecast.io.

Current aviation weather report (METAR) for Mersing Airport

2024/05/20 02:00 (retrieved 44 minutes ago)

WMAU 200200Z 17006KT 110V240 8000 FEW020 29/27 Q1008

Closest aviation forecast (TAF) to Mersing Airport

Forecast is more than 12 hours old.

Closest forecast is Aden Adde International Airport, 3,513.8 nm (6,507.5 km) W.

2024/05/19 12:54 (retrieved 14 hours ago)

TAF TAF HCMM 191100Z 1912/2018 20015KT 9999 FEW026 BECMG 1923/2002 21010KT SCT020 SCT020 BECMG 2008/2011 22015KT FEW025 SCT090